ただ真っ直ぐ飛ばせる様になりたい!!

LUXURY FLIGHT

03-6423-7371

羽田本店:東京都大田区羽田5-11-1
営業時間:10:00~20:00
定休日:毎週 月曜日
セントレア店:愛知県常滑市セントレア1-1
営業時間:10:00~20:00 年中無休

lv

ただ真っ直ぐ飛ばせる様になりたい!!

STAFF BLOG

2019/05/15 ただ真っ直ぐ飛ばせる様になりたい!!

 

皆々様、グッモーニンでございます。

 

本日の羽田空港および穴守稲荷周辺ですが…

img_1381

 

RJTT 150000Z 20013KT 9999 FEW010 SCT015 BKN050 18/14 Q1018 NOSIG

RMK 1ST010 3CU015 7SC050 A3007

 

カッコ良く書いてみましたが、要は薄曇りという感じです!!笑

 

 

そんな中、こちらの男性。

 

お店に入ってくるなり、「とにかく、真っ直ぐに飛ばせるようになりたい!」

と熱く語ってくださいました。

 

聞けば、セントレア店787でも操縦を勉強されているとのこと。

その情熱と気合いに感銘し、徹底的にストレート&レベルをお伝えさせていただきました。

 

img_1379

 

ご存知の方も多いかと思いますが、

ストレート&レベルはシンプルが故に大変奥が深く、操縦のクセが出やすい課目でございます。

 

極めようとすると、多くの方が苦しむ難関ですが、

同時に8割方のお客様は同じところで苦しんでいると言えます。

 

※私の経験則からの個人的かつ勝手な主観によります。笑

 

ちょっと飛んだくらいでは、頭ではわかっていても体が…

なんてことは当たり前ですので、コツコツ頑張って参りましょう!!

 

こちらも私の主観ですが、ストレート&レベルは格闘技等でいう「型」に相当するものだと思ってます。

やることは変化がなく「地味」な作業ですが、操縦に必要なものが「ほぼ」全て詰まっていると言っても過言では無いかな、

なーんて思ってます。

 

常に全力サポートさせていただきますので、引き続きよろしくおなしゃーーーーーす

 

 

またのご来店を心よりお待ちいたしております。

いつも本当にありがとうございます。

 

「感謝」

 

 

 

 

TOP